createdAt,value
2023-02-16T00:04:33.083Z,99690.81
2023-02-16T00:09:38.908Z,99687.48
2023-02-16T00:14:43.270Z,99684.38
2023-02-16T00:19:44.849Z,99685.78
2023-02-16T00:24:46.551Z,99685.69
2023-02-16T00:29:48.299Z,99683.98
2023-02-16T00:34:49.950Z,99684.38
2023-02-16T00:39:51.645Z,99681.89
2023-02-16T00:44:55.841Z,99679.23
2023-02-16T00:49:57.731Z,99678.96
2023-02-16T00:55:00.858Z,99675.39
2023-02-16T01:00:12.869Z,99661.15
2023-02-16T01:05:15.328Z,99654.18
2023-02-16T01:10:37.972Z,99648.30
2023-02-16T01:15:40.750Z,99644.73
2023-02-16T01:20:42.649Z,99647.16
2023-02-16T01:25:44.453Z,99644.70
2023-02-16T01:30:46.372Z,99644.98
2023-02-16T01:35:49.822Z,99650.02
2023-02-16T01:41:10.420Z,99649.06
2023-02-16T01:46:24.682Z,99645.77
2023-02-16T01:51:40.177Z,99644.19
2023-02-16T01:56:48.134Z,99634.48
2023-02-16T02:02:02.439Z,99629.66
2023-02-16T02:07:04.450Z,99627.60
2023-02-16T02:12:18.510Z,99615.61
2023-02-16T02:17:21.392Z,99617.22
2023-02-16T02:23:31.711Z,99625.54
2023-02-16T02:28:38.913Z,99625.50
2023-02-16T02:34:19.580Z,99619.23
2023-02-16T02:39:33.622Z,99625.29
2023-02-16T02:44:49.125Z,99619.91
2023-02-16T02:49:55.212Z,99619.00
2023-02-16T02:55:16.004Z,99616.88
2023-02-16T03:00:41.152Z,99617.29
2023-02-16T03:06:02.380Z,99624.49
2023-02-16T03:11:41.980Z,99626.83
2023-02-16T03:16:45.497Z,99633.48
2023-02-16T03:22:06.438Z,99629.43
2023-02-16T03:27:27.789Z,99625.60
2023-02-16T03:32:29.634Z,99622.64
2023-02-16T03:37:32.355Z,99614.33
2023-02-16T03:42:34.161Z,99608.80
2023-02-16T03:47:35.837Z,99608.73
2023-02-16T03:52:37.518Z,99608.88
2023-02-16T03:57:39.216Z,99606.45
2023-02-16T04:02:41.036Z,99600.46
2023-02-16T04:07:42.684Z,99602.30
2023-02-16T04:12:44.762Z,99599.57
2023-02-16T04:17:47.674Z,99595.27
2023-02-16T04:22:49.749Z,99597.66
2023-02-16T04:27:52.029Z,99588.30
2023-02-16T04:32:54.126Z,99583.77
2023-02-16T04:37:56.312Z,99582.45
2023-02-16T04:42:58.158Z,99582.13
2023-02-16T04:47:59.943Z,99581.17
2023-02-16T04:53:01.754Z,99577.30
2023-02-16T04:58:03.426Z,99576.37
2023-02-16T05:03:05.174Z,99577.45
2023-02-16T05:08:06.927Z,99577.69
2023-02-16T05:13:29.770Z,99575.41
2023-02-16T05:18:31.483Z,99572.35
2023-02-16T05:23:33.157Z,99563.84
2023-02-16T05:28:34.895Z,99560.73
2023-02-16T05:33:36.689Z,99568.55
2023-02-16T05:38:38.493Z,99582.20
2023-02-16T05:43:40.306Z,99578.44
2023-02-16T05:48:42.108Z,99584.19
2023-02-16T05:53:43.898Z,99595.29
2023-02-16T05:58:45.704Z,99601.44
2023-02-16T06:03:48.153Z,99601.45
2023-02-16T06:08:49.917Z,99606.73
2023-02-16T06:13:51.629Z,99607.42
2023-02-16T06:18:54.307Z,99602.58
2023-02-16T06:23:56.586Z,99605.92
2023-02-16T06:28:58.789Z,99611.13
2023-02-16T06:34:03.773Z,99611.05
2023-02-16T06:39:05.707Z,99609.42
2023-02-16T06:44:13.501Z,99606.14
2023-02-16T06:49:18.232Z,99602.98
2023-02-16T06:54:22.804Z,99604.27
2023-02-16T06:59:24.582Z,99612.71
2023-02-16T07:04:26.696Z,99619.30
2023-02-16T07:09:28.474Z,99616.64
2023-02-16T07:14:31.810Z,99618.42
2023-02-16T07:19:33.824Z,99621.08
2023-02-16T07:24:35.551Z,99619.59
2023-02-16T07:29:37.149Z,99611.58
2023-02-16T07:34:38.848Z,99610.45
2023-02-16T07:39:40.547Z,99613.67
2023-02-16T07:44:42.103Z,99613.33
2023-02-16T07:49:43.747Z,99610.80
2023-02-16T07:54:55.532Z,99612.70
2023-02-16T07:59:57.828Z,99600.73
2023-02-16T08:05:00.243Z,99597.80
2023-02-16T08:10:01.941Z,99604.46
2023-02-16T08:15:04.473Z,99600.48
2023-02-16T08:20:07.795Z,99584.58
2023-02-16T08:25:09.571Z,99596.30
2023-02-16T08:30:13.020Z,99599.06
2023-02-16T08:35:15.382Z,99594.42
2023-02-16T08:40:18.146Z,99590.86
2023-02-16T08:45:19.998Z,99592.68
2023-02-16T08:50:22.465Z,99595.60
2023-02-16T08:55:24.125Z,99595.45
2023-02-16T09:00:34.601Z,99601.17
2023-02-16T09:05:36.402Z,99597.94
2023-02-16T09:10:38.659Z,99602.72
2023-02-16T09:15:42.946Z,99601.58
2023-02-16T09:20:47.091Z,99602.84
2023-02-16T09:25:48.889Z,99607.23
2023-02-16T09:30:50.873Z,99609.15
2023-02-16T09:35:53.166Z,99613.95
2023-02-16T09:40:56.829Z,99608.13
2023-02-16T09:45:59.381Z,99602.95
2023-02-16T09:51:04.311Z,99604.71
2023-02-16T09:56:22.727Z,99606.25
2023-02-16T10:01:48.088Z,99601.04
2023-02-16T10:07:12.020Z,99587.77
2023-02-16T10:12:20.881Z,99582.28
2023-02-16T10:17:37.900Z,99579.70
2023-02-16T10:22:45.809Z,99571.48
2023-02-16T10:27:54.990Z,99569.14
2023-02-16T10:33:15.735Z,99567.79
2023-02-16T10:38:32.268Z,99562.98
2023-02-16T10:43:44.037Z,99559.86
2023-02-16T10:48:46.662Z,99548.33
2023-02-16T10:53:53.020Z,99530.40
2023-02-16T10:58:56.573Z,99519.73
2023-02-16T11:03:58.894Z,99520.66
2023-02-16T11:09:04.261Z,99515.21
2023-02-16T11:14:31.311Z,99508.65
2023-02-16T11:19:35.526Z,99505.40
2023-02-16T11:24:38.312Z,99499.33
2023-02-16T11:29:41.049Z,99495.83
2023-02-16T11:34:49.221Z,99488.55
2023-02-16T11:40:26.094Z,99485.08
2023-02-16T11:45:31.874Z,99483.77
2023-02-16T11:50:39.837Z,99489.14
2023-02-16T11:55:48.177Z,99489.75
2023-02-16T12:01:09.764Z,99485.30
2023-02-16T12:06:31.031Z,99487.11
2023-02-16T12:11:57.706Z,99476.35
2023-02-16T12:17:17.646Z,99460.37
2023-02-16T12:22:47.718Z,99461.69
2023-02-16T12:27:57.963Z,99464.56
2023-02-16T12:33:10.821Z,99469.47
2023-02-16T12:38:41.484Z,99463.67
2023-02-16T12:44:02.923Z,99461.55
2023-02-16T12:49:14.025Z,99460.08
2023-02-16T12:54:25.302Z,99450.16
2023-02-16T12:59:42.288Z,99443.58
2023-02-16T13:05:10.700Z,99437.30
2023-02-16T13:10:24.744Z,99435.14
2023-02-16T13:15:35.819Z,99434.44
2023-02-16T13:20:41.328Z,99423.07
2023-02-16T13:25:58.026Z,99414.13
2023-02-16T13:31:29.385Z,99408.61
2023-02-16T13:36:49.542Z,99407.87
2023-02-16T13:42:00.442Z,99402.31
2023-02-16T13:47:04.957Z,99400.41
2023-02-16T13:52:11.865Z,99398.16
2023-02-16T13:57:18.468Z,99398.42
2023-02-16T14:02:54.581Z,99398.83
2023-02-16T14:08:18.739Z,99392.21
2023-02-16T14:13:33.152Z,99383.64
2023-02-16T14:18:53.922Z,99389.34
2023-02-16T14:24:03.133Z,99393.48
2023-02-16T14:29:17.939Z,99401.65
2023-02-16T14:34:30.929Z,99402.59
2023-02-16T14:39:33.818Z,99409.50
2023-02-16T14:45:00.354Z,99405.39
2023-02-16T14:50:50.967Z,99404.17
2023-02-16T14:56:16.743Z,99400.24
2023-02-16T15:01:21.465Z,99396.80
2023-02-16T15:06:32.616Z,99394.57
2023-02-16T15:12:00.591Z,99401.84
2023-02-16T15:17:08.202Z,99403.91
2023-02-16T15:22:25.911Z,99404.42
2023-02-16T15:27:29.056Z,99406.46
2023-02-16T15:32:32.180Z,99407.70
2023-02-16T15:37:34.027Z,99400.04
2023-02-16T15:42:37.465Z,99396.56
2023-02-16T15:47:39.301Z,99393.45
2023-02-16T15:52:41.057Z,99392.18
2023-02-16T15:57:42.858Z,99394.63
2023-02-16T16:02:49.935Z,99393.77
2023-02-16T16:07:52.421Z,99390.06
2023-02-16T16:13:01.771Z,99391.80
2023-02-16T16:18:06.134Z,99392.41
2023-02-16T16:23:14.156Z,99389.86
2023-02-16T16:28:24.806Z,99387.45
2023-02-16T16:34:31.765Z,99382.88
2023-02-16T16:39:36.187Z,99387.66
2023-02-16T16:44:41.153Z,99382.95
2023-02-16T16:49:51.536Z,99381.41
2023-02-16T16:54:53.265Z,99385.09
2023-02-16T16:59:55.219Z,99385.39
2023-02-16T17:04:56.976Z,99392.39
2023-02-16T17:10:00.015Z,99388.34
2023-02-16T17:15:02.690Z,99389.27
2023-02-16T17:20:13.414Z,99388.02
2023-02-16T17:25:15.520Z,99386.23
2023-02-16T17:30:17.492Z,99382.50
2023-02-16T17:35:22.262Z,99386.10
2023-02-16T17:40:26.356Z,99385.80
2023-02-16T17:45:31.160Z,99386.98
2023-02-16T17:50:33.273Z,99386.52
2023-02-16T17:55:35.267Z,99384.64
2023-02-16T18:00:38.528Z,99385.48
2023-02-16T18:05:41.612Z,99393.98
2023-02-16T18:10:46.941Z,99398.22
2023-02-16T18:15:50.437Z,99401.65
2023-02-16T18:20:52.455Z,99405.66
2023-02-16T18:25:54.400Z,99405.81
2023-02-16T18:30:56.720Z,99402.73
2023-02-16T18:35:59.984Z,99407.15
2023-02-16T18:41:01.969Z,99408.61
2023-02-16T18:46:07.877Z,99415.19
2023-02-16T18:51:11.673Z,99419.89
2023-02-16T18:56:14.017Z,99420.65
2023-02-16T19:01:30.818Z,99422.58
2023-02-16T19:06:33.972Z,99417.77
2023-02-16T19:11:36.455Z,99423.77
2023-02-16T19:16:39.461Z,99419.74
2023-02-16T19:21:44.400Z,99425.51
2023-02-16T19:26:46.539Z,99423.90
2023-02-16T19:31:49.362Z,99422.00
2023-02-16T19:36:51.201Z,99418.73
2023-02-16T19:41:53.078Z,99420.48
2023-02-16T19:46:54.767Z,99418.48
2023-02-16T19:51:56.640Z,99416.91
2023-02-16T19:56:58.724Z,99411.52
2023-02-16T20:02:00.978Z,99415.67
2023-02-16T20:07:06.650Z,99412.23
2023-02-16T20:12:08.645Z,99414.03
2023-02-16T20:17:10.612Z,99416.41
2023-02-16T20:22:13.924Z,99416.40
2023-02-16T20:27:15.674Z,99420.83
2023-02-16T20:32:17.716Z,99417.67
2023-02-16T20:37:20.992Z,99411.66
2023-02-16T20:42:22.889Z,99413.42
2023-02-16T20:47:24.748Z,99414.61
2023-02-16T20:52:26.618Z,99414.55
2023-02-16T20:57:39.037Z,99412.10
2023-02-16T21:02:43.869Z,99413.33
2023-02-16T21:07:48.033Z,99415.09
2023-02-16T21:12:51.163Z,99411.46
2023-02-16T21:17:52.944Z,99410.74
2023-02-16T21:22:54.613Z,99407.69
2023-02-16T21:27:56.246Z,99406.19
2023-02-16T21:32:58.348Z,99401.84
2023-02-16T21:38:00.461Z,99399.62
2023-02-16T21:43:02.298Z,99401.34
2023-02-16T21:48:23.378Z,99404.73
2023-02-16T21:53:25.425Z,99395.10
2023-02-16T21:58:27.328Z,99393.39
2023-02-16T22:03:29.239Z,99390.55
2023-02-16T22:08:33.607Z,99395.36
2023-02-16T22:13:41.409Z,99393.98
2023-02-16T22:18:43.917Z,99386.66
2023-02-16T22:23:47.647Z,99386.48
2023-02-16T22:28:50.573Z,99389.41
2023-02-16T22:34:03.895Z,99397.42
2023-02-16T22:39:06.550Z,99392.56
2023-02-16T22:44:09.741Z,99397.93
2023-02-16T22:49:14.491Z,99403.95
2023-02-16T22:54:16.310Z,99406.11
2023-02-16T22:59:18.013Z,99404.14
2023-02-16T23:04:19.780Z,99404.06
2023-02-16T23:09:22.348Z,99397.46
2023-02-16T23:14:24.034Z,99389.02
2023-02-16T23:19:26.838Z,99386.48
2023-02-16T23:24:28.633Z,99383.10
2023-02-16T23:29:30.375Z,99381.67
2023-02-16T23:34:32.072Z,99375.92
2023-02-16T23:39:33.673Z,99367.74
2023-02-16T23:44:35.380Z,99361.65
2023-02-16T23:49:37.126Z,99358.99
2023-02-16T23:54:38.872Z,99356.41
2023-02-16T23:59:40.618Z,99363.73
